createdAt,value
2022-09-14T00:01:08.172Z,13.04
2022-09-14T00:01:51.548Z,13.04
2022-09-14T00:02:50.547Z,13.03
2022-09-14T00:03:50.570Z,13.03
2022-09-14T00:04:50.437Z,13.03
2022-09-14T00:05:50.416Z,13.01
2022-09-14T00:06:50.408Z,13.00
2022-09-14T00:07:50.393Z,12.98
2022-09-14T00:08:50.375Z,12.98
2022-09-14T00:09:50.376Z,12.98
2022-09-14T00:10:50.358Z,12.98
2022-09-14T00:11:50.326Z,12.95
2022-09-14T00:12:50.340Z,12.94
2022-09-14T00:13:50.323Z,12.94
2022-09-14T00:14:50.305Z,12.91
2022-09-14T00:15:50.283Z,12.93
2022-09-14T00:16:50.340Z,12.93
2022-09-14T00:17:50.246Z,12.91
2022-09-14T00:18:50.245Z,12.87
2022-09-14T00:19:50.235Z,12.87
2022-09-14T00:20:50.223Z,12.86
2022-09-14T00:21:50.195Z,12.86
2022-09-14T00:22:50.185Z,12.85
2022-09-14T00:23:50.167Z,12.85
2022-09-14T00:24:50.165Z,12.83
2022-09-14T00:25:50.146Z,12.82
2022-09-14T00:26:50.141Z,12.82
2022-09-14T00:27:50.117Z,12.80
2022-09-14T00:28:50.112Z,12.80
2022-09-14T00:29:50.094Z,12.78
2022-09-14T00:30:50.083Z,12.79
2022-09-14T00:31:50.132Z,12.73
2022-09-14T00:32:50.057Z,12.75
2022-09-14T00:33:50.070Z,12.76
2022-09-14T00:34:50.033Z,12.72
2022-09-14T00:35:50.015Z,12.70
2022-09-14T00:36:50.014Z,12.68
2022-09-14T00:37:49.983Z,12.67
2022-09-14T00:38:49.982Z,12.64
2022-09-14T00:39:50.039Z,12.62
2022-09-14T00:40:49.953Z,12.62
2022-09-14T00:41:49.947Z,12.61
2022-09-14T00:42:49.924Z,12.62
2022-09-14T00:43:49.981Z,12.60
2022-09-14T00:44:49.904Z,12.61
2022-09-14T00:45:49.929Z,12.60
2022-09-14T00:46:49.880Z,12.60
2022-09-14T00:47:49.842Z,12.58
2022-09-14T00:48:49.863Z,12.58
2022-09-14T00:49:49.841Z,12.60
2022-09-14T00:50:49.825Z,12.57
2022-09-14T00:51:49.810Z,12.55
2022-09-14T00:52:49.811Z,12.55
2022-09-14T00:53:49.779Z,12.53
2022-09-14T00:54:49.799Z,12.50
2022-09-14T00:55:49.756Z,12.54
2022-09-14T00:56:49.751Z,12.50
2022-09-14T00:57:49.728Z,12.47
2022-09-14T00:58:49.781Z,12.49
2022-09-14T00:59:49.740Z,12.49
2022-09-14T01:00:49.731Z,12.49
2022-09-14T01:01:49.703Z,12.47
2022-09-14T01:02:49.652Z,12.47
2022-09-14T01:03:49.640Z,12.45
2022-09-14T01:04:49.640Z,12.47
2022-09-14T01:05:49.634Z,12.43
2022-09-14T01:06:49.600Z,12.45
2022-09-14T01:07:49.600Z,12.43
2022-09-14T01:08:49.590Z,12.42
2022-09-14T01:09:49.560Z,12.42
2022-09-14T01:10:49.541Z,12.42
2022-09-14T01:11:51.619Z,12.40
2022-09-14T01:12:49.522Z,12.40
2022-09-14T01:13:49.501Z,12.42
2022-09-14T01:14:49.506Z,12.40
2022-09-14T01:15:49.479Z,12.40
2022-09-14T01:16:49.492Z,12.39
2022-09-14T01:17:49.454Z,12.40
2022-09-14T01:18:49.500Z,12.36
2022-09-14T01:19:49.427Z,12.37
2022-09-14T01:20:49.409Z,12.35
2022-09-14T01:21:49.399Z,12.36
2022-09-14T01:22:49.389Z,12.35
2022-09-14T01:23:49.397Z,12.32
2022-09-14T01:24:49.370Z,12.32
2022-09-14T01:25:49.355Z,12.32
2022-09-14T01:26:49.341Z,12.35
2022-09-14T01:27:49.338Z,12.31
2022-09-14T01:28:49.307Z,12.29
2022-09-14T01:29:49.299Z,12.29
2022-09-14T01:30:49.278Z,12.28
2022-09-14T01:31:49.294Z,12.29
2022-09-14T01:32:49.251Z,12.27
2022-09-14T01:33:49.237Z,12.25
2022-09-14T01:34:49.228Z,12.25
2022-09-14T01:35:49.211Z,12.22
2022-09-14T01:36:49.198Z,12.24
2022-09-14T01:37:49.187Z,12.25
2022-09-14T01:38:49.271Z,12.22
2022-09-14T01:39:49.248Z,12.22
2022-09-14T01:40:49.155Z,12.24
2022-09-14T01:41:49.146Z,12.21
2022-09-14T01:42:49.120Z,12.20
2022-09-14T01:43:49.100Z,12.20
2022-09-14T01:44:49.106Z,12.17
2022-09-14T01:45:49.190Z,12.17
2022-09-14T01:46:49.082Z,12.17
2022-09-14T01:47:49.046Z,12.17
2022-09-14T01:48:49.090Z,12.17
2022-09-14T01:49:49.038Z,12.13
2022-09-14T01:50:49.026Z,12.15
2022-09-14T01:51:48.996Z,12.13
2022-09-14T01:52:48.986Z,12.12
2022-09-14T01:53:49.016Z,12.12
2022-09-14T01:54:48.983Z,12.09
2022-09-14T01:55:48.948Z,12.09
2022-09-14T01:56:48.936Z,12.07
2022-09-14T01:57:48.915Z,12.06
2022-09-14T01:58:48.904Z,12.06
2022-09-14T01:59:48.895Z,12.06
2022-09-14T02:00:48.955Z,12.03
2022-09-14T02:01:50.660Z,12.04
2022-09-14T02:02:48.856Z,12.04
2022-09-14T02:03:48.891Z,12.03
2022-09-14T02:04:48.864Z,12.03
2022-09-14T02:05:48.808Z,12.02
2022-09-14T02:06:48.796Z,11.99
2022-09-14T02:07:48.799Z,11.99
2022-09-14T02:08:48.765Z,11.97
2022-09-14T02:09:48.763Z,11.99
2022-09-14T02:10:48.753Z,11.95
2022-09-14T02:11:48.723Z,11.99
2022-09-14T02:12:48.724Z,11.94
2022-09-14T02:13:48.694Z,11.94
2022-09-14T02:14:48.704Z,11.91
2022-09-14T02:15:48.782Z,11.94
2022-09-14T02:16:48.662Z,11.90
2022-09-14T02:17:48.647Z,11.88
2022-09-14T02:18:48.636Z,11.87
2022-09-14T02:19:48.665Z,11.87
2022-09-14T02:20:48.613Z,11.84
2022-09-14T02:21:48.601Z,11.87
2022-09-14T02:22:48.583Z,11.86
2022-09-14T02:23:48.563Z,11.84
2022-09-14T02:24:48.572Z,11.86
2022-09-14T02:25:48.552Z,11.83
2022-09-14T02:26:48.545Z,11.81
2022-09-14T02:27:48.521Z,11.80
2022-09-14T02:28:48.540Z,11.80
2022-09-14T02:29:48.501Z,11.84
2022-09-14T02:30:48.479Z,11.81
2022-09-14T02:31:48.495Z,11.80
2022-09-14T02:32:48.461Z,11.78
2022-09-14T02:33:48.443Z,11.78
2022-09-14T02:34:48.934Z,11.78
2022-09-14T02:35:48.405Z,11.75
2022-09-14T02:36:48.401Z,11.78
2022-09-14T02:37:48.372Z,11.77
2022-09-14T02:38:48.362Z,11.78
2022-09-14T02:39:48.393Z,11.78
2022-09-14T02:40:48.344Z,11.75
2022-09-14T02:41:48.321Z,11.77
2022-09-14T02:42:48.312Z,11.73
2022-09-14T02:43:48.311Z,11.73
2022-09-14T02:44:48.301Z,11.73
2022-09-14T02:45:48.278Z,11.73
2022-09-14T02:46:48.361Z,11.73
2022-09-14T02:47:48.242Z,11.73
2022-09-14T02:48:48.244Z,11.72
2022-09-14T02:49:48.229Z,11.70
2022-09-14T02:50:48.200Z,11.72
2022-09-14T02:51:48.189Z,11.69
2022-09-14T02:52:48.180Z,11.70
2022-09-14T02:53:48.160Z,11.70
2022-09-14T02:54:48.159Z,11.70
2022-09-14T02:55:48.129Z,11.69
2022-09-14T02:56:48.133Z,11.70
2022-09-14T02:57:48.118Z,11.68
2022-09-14T02:58:48.206Z,11.70
2022-09-14T02:59:48.088Z,11.68
2022-09-14T03:00:48.179Z,11.69
2022-09-14T03:01:48.084Z,11.68
2022-09-14T03:02:48.048Z,11.69
2022-09-14T03:03:48.279Z,11.68
2022-09-14T03:04:48.028Z,11.69
2022-09-14T03:05:48.029Z,11.68
2022-09-14T03:06:47.990Z,11.68
2022-09-14T03:07:47.969Z,11.70
2022-09-14T03:08:48.047Z,11.69
2022-09-14T03:09:47.960Z,11.69
2022-09-14T03:10:47.938Z,11.68
2022-09-14T03:11:47.929Z,11.66
2022-09-14T03:12:47.907Z,11.68
2022-09-14T03:13:47.898Z,11.68
2022-09-14T03:14:47.887Z,11.68
2022-09-14T03:15:47.901Z,11.68
2022-09-14T03:16:47.847Z,11.68
2022-09-14T03:17:47.838Z,11.66
2022-09-14T03:18:47.952Z,11.68
2022-09-14T03:19:47.814Z,11.65
2022-09-14T03:20:47.808Z,11.66
2022-09-14T03:21:47.777Z,11.63
2022-09-14T03:22:47.776Z,11.63
2022-09-14T03:23:47.775Z,11.63
2022-09-14T03:24:47.747Z,11.62
2022-09-14T03:25:47.733Z,11.62
2022-09-14T03:26:47.723Z,11.62
2022-09-14T03:27:47.707Z,11.62
2022-09-14T03:28:47.703Z,11.62
2022-09-14T03:29:47.675Z,11.57
2022-09-14T03:30:47.688Z,11.59
2022-09-14T03:31:47.701Z,11.57
2022-09-14T03:32:47.647Z,11.54
2022-09-14T03:33:47.683Z,11.57
2022-09-14T03:34:47.625Z,11.55
2022-09-14T03:35:47.595Z,11.54
2022-09-14T03:36:47.576Z,11.54
2022-09-14T03:37:47.570Z,11.51
2022-09-14T03:38:47.565Z,11.52
2022-09-14T03:39:47.557Z,11.51
2022-09-14T03:40:47.535Z,11.51
2022-09-14T03:41:47.505Z,11.50
2022-09-14T03:42:47.505Z,11.51
2022-09-14T03:43:47.616Z,11.48
2022-09-14T03:44:47.475Z,11.50
2022-09-14T03:45:47.455Z,11.48
2022-09-14T03:46:47.507Z,11.47
2022-09-14T03:47:47.426Z,11.47
2022-09-14T03:48:47.440Z,11.45
2022-09-14T03:49:47.407Z,11.45
2022-09-14T03:50:47.394Z,11.45
2022-09-14T03:51:47.378Z,11.45
2022-09-14T03:52:47.364Z,11.43
2022-09-14T03:53:47.518Z,11.44
2022-09-14T03:54:47.355Z,11.41
2022-09-14T03:55:47.333Z,11.41
2022-09-14T03:56:47.363Z,11.40
2022-09-14T03:57:47.294Z,11.41
2022-09-14T03:58:47.296Z,11.40
2022-09-14T03:59:47.296Z,11.37
2022-09-14T04:00:47.272Z,11.36
2022-09-14T04:01:47.285Z,11.36
2022-09-14T04:02:47.335Z,11.37
2022-09-14T04:03:47.230Z,11.35
2022-09-14T04:04:47.224Z,11.36
2022-09-14T04:05:47.192Z,11.33
2022-09-14T04:06:47.183Z,11.33
2022-09-14T04:07:47.163Z,11.29
2022-09-14T04:08:47.220Z,11.30
2022-09-14T04:09:47.143Z,11.27
2022-09-14T04:10:47.132Z,11.27
2022-09-14T04:11:47.110Z,11.27
2022-09-14T04:12:47.091Z,11.26
2022-09-14T04:13:47.095Z,11.27
2022-09-14T04:14:47.101Z,11.25
2022-09-14T04:15:47.153Z,11.27
2022-09-14T04:16:47.040Z,11.25
2022-09-14T04:17:47.031Z,11.25
2022-09-14T04:18:47.011Z,11.25
2022-09-14T04:19:47.026Z,11.25
2022-09-14T04:20:46.982Z,11.22
2022-09-14T04:21:46.986Z,11.23
2022-09-14T04:22:46.971Z,11.19
2022-09-14T04:24:10.566Z,11.18
2022-09-14T04:24:47.957Z,11.18
2022-09-14T04:25:46.921Z,11.17
2022-09-14T04:26:46.901Z,11.17
2022-09-14T04:27:58.957Z,11.17
2022-09-14T04:28:47.911Z,11.15
2022-09-14T04:29:46.905Z,11.15
2022-09-14T04:30:46.851Z,11.15
2022-09-14T04:31:46.910Z,11.14
2022-09-14T04:32:46.841Z,11.14
2022-09-14T04:33:46.884Z,11.14
2022-09-14T04:34:46.808Z,11.12
2022-09-14T04:35:46.793Z,11.11
2022-09-14T04:36:46.800Z,11.14
2022-09-14T04:37:46.770Z,11.11
2022-09-14T04:38:46.749Z,11.11
2022-09-14T04:39:46.806Z,11.10
2022-09-14T04:40:46.726Z,11.10
2022-09-14T04:41:46.710Z,11.08
2022-09-14T04:42:46.691Z,11.08
2022-09-14T04:43:46.692Z,11.08
2022-09-14T04:44:46.699Z,11.08
2022-09-14T04:45:46.657Z,11.05
2022-09-14T04:46:47.273Z,11.04
2022-09-14T04:47:46.646Z,11.05
2022-09-14T04:48:46.612Z,11.02
2022-09-14T04:49:46.608Z,11.02
2022-09-14T04:50:46.597Z,11.00
2022-09-14T04:51:46.573Z,11.02
2022-09-14T04:52:46.561Z,11.00
2022-09-14T04:53:46.559Z,11.02
2022-09-14T04:54:46.544Z,10.99
2022-09-14T04:55:46.519Z,10.96
2022-09-14T04:56:46.508Z,11.00
2022-09-14T04:57:46.503Z,10.99
2022-09-14T04:58:51.265Z,10.96
2022-09-14T04:59:47.479Z,10.97
2022-09-14T05:00:46.447Z,10.96
2022-09-14T05:01:46.482Z,10.94
2022-09-14T05:02:46.543Z,10.96
2022-09-14T05:03:46.438Z,10.94
2022-09-14T05:04:46.441Z,10.94
2022-09-14T05:05:46.387Z,10.94
2022-09-14T05:06:46.423Z,10.94
2022-09-14T05:07:46.398Z,10.93
2022-09-14T05:08:46.351Z,10.94
2022-09-14T05:09:46.388Z,10.93
2022-09-14T05:10:46.348Z,10.94
2022-09-14T05:11:46.326Z,10.94
2022-09-14T05:12:46.295Z,10.94
2022-09-14T05:13:49.679Z,10.94
2022-09-14T05:14:46.305Z,10.94
2022-09-14T05:15:46.406Z,10.94
2022-09-14T05:16:46.288Z,10.94
2022-09-14T05:17:46.238Z,10.96
2022-09-14T05:18:46.215Z,10.94
2022-09-14T05:19:46.219Z,10.96
2022-09-14T05:20:46.202Z,10.96
2022-09-14T05:21:46.188Z,10.96
2022-09-14T05:22:46.170Z,10.96
2022-09-14T05:23:46.203Z,10.97
2022-09-14T05:24:46.144Z,10.97
2022-09-14T05:25:46.151Z,10.97
2022-09-14T05:26:46.113Z,10.99
2022-09-14T05:27:46.108Z,11.00
2022-09-14T05:28:46.083Z,11.00
2022-09-14T05:29:46.081Z,11.00
2022-09-14T05:30:46.110Z,11.04
2022-09-14T05:31:46.081Z,11.04
2022-09-14T05:32:46.023Z,11.04
2022-09-14T05:33:46.015Z,11.05
2022-09-14T05:34:45.995Z,11.08
2022-09-14T05:35:53.506Z,11.05
2022-09-14T05:36:45.965Z,11.08
2022-09-14T05:37:45.970Z,11.08
2022-09-14T05:38:45.934Z,11.08
2022-09-14T05:39:45.979Z,11.10
2022-09-14T05:40:45.939Z,11.12
2022-09-14T05:41:46.049Z,11.12
2022-09-14T05:42:45.884Z,11.12
2022-09-14T05:43:45.944Z,11.12
2022-09-14T05:44:46.091Z,11.11
2022-09-14T05:45:45.922Z,11.12
2022-09-14T05:46:46.012Z,11.15
2022-09-14T05:47:45.853Z,11.17
2022-09-14T05:48:45.831Z,11.18
2022-09-14T05:49:45.860Z,11.18
2022-09-14T05:50:45.794Z,11.19
2022-09-14T05:51:45.903Z,11.19
2022-09-14T05:52:45.793Z,11.23
2022-09-14T05:53:45.752Z,11.23
2022-09-14T05:54:45.781Z,11.25
2022-09-14T05:55:45.764Z,11.25
2022-09-14T05:56:46.125Z,11.26
2022-09-14T05:57:45.851Z,11.27
2022-09-14T05:58:45.682Z,11.27
2022-09-14T05:59:45.833Z,11.29
2022-09-14T06:00:45.685Z,11.30
2022-09-14T06:01:45.691Z,11.29
2022-09-14T06:02:45.611Z,11.32
2022-09-14T06:03:45.621Z,11.33
2022-09-14T06:04:45.611Z,11.35
2022-09-14T06:05:45.654Z,11.37
2022-09-14T06:06:56.092Z,11.37
2022-09-14T06:07:46.621Z,11.41
2022-09-14T06:08:45.543Z,11.41
2022-09-14T06:09:45.551Z,11.41
2022-09-14T06:10:45.501Z,11.43
2022-09-14T06:11:45.511Z,11.44
2022-09-14T06:12:45.484Z,11.47
2022-09-14T06:13:45.471Z,11.48
2022-09-14T06:14:45.587Z,11.51
2022-09-14T06:15:45.451Z,11.52
2022-09-14T06:16:45.449Z,11.55
2022-09-14T06:17:45.428Z,11.57
2022-09-14T06:18:45.401Z,11.59
2022-09-14T06:19:45.460Z,11.60
2022-09-14T06:20:45.995Z,11.68
2022-09-14T06:21:45.359Z,11.70
2022-09-14T06:22:45.354Z,11.73
2022-09-14T06:23:45.449Z,11.77
2022-09-14T06:24:45.364Z,11.80
2022-09-14T06:25:45.417Z,11.83
2022-09-14T06:26:45.306Z,11.83
2022-09-14T06:27:45.667Z,11.87
2022-09-14T06:28:45.270Z,11.94
2022-09-14T06:29:45.328Z,11.99
2022-09-14T06:30:45.268Z,12.02
2022-09-14T06:31:45.263Z,12.06
2022-09-14T06:32:45.218Z,12.09
2022-09-14T06:33:45.238Z,12.12
2022-09-14T06:34:45.200Z,12.18
2022-09-14T06:35:45.182Z,12.17
2022-09-14T06:36:45.200Z,12.27
2022-09-14T06:37:45.159Z,12.28
2022-09-14T06:38:45.176Z,12.31
2022-09-14T06:39:45.205Z,12.40
2022-09-14T06:40:45.108Z,12.46
2022-09-14T06:41:45.138Z,12.49
2022-09-14T06:42:45.127Z,12.50
2022-09-14T06:43:45.089Z,12.57
2022-09-14T06:44:45.069Z,12.61
2022-09-14T06:45:45.060Z,12.65
2022-09-14T06:46:47.648Z,12.65
2022-09-14T06:47:45.034Z,12.72
2022-09-14T06:48:45.023Z,12.72
2022-09-14T06:49:45.018Z,12.75
2022-09-14T06:50:44.983Z,12.79
2022-09-14T06:51:44.982Z,12.79
2022-09-14T06:52:44.995Z,12.85
2022-09-14T06:53:44.966Z,12.86
2022-09-14T06:54:44.938Z,12.90
2022-09-14T06:55:44.928Z,12.91
2022-09-14T06:56:45.001Z,12.97
2022-09-14T06:57:44.898Z,13.00
2022-09-14T06:58:44.870Z,13.01
2022-09-14T06:59:44.878Z,13.01
2022-09-14T07:00:44.863Z,13.08
2022-09-14T07:01:44.840Z,13.11
2022-09-14T07:02:44.920Z,13.13
2022-09-14T07:03:44.829Z,13.15
2022-09-14T07:04:44.848Z,13.19
2022-09-14T07:05:44.808Z,13.22
2022-09-14T07:06:44.787Z,13.25
2022-09-14T07:07:44.792Z,13.27
2022-09-14T07:08:44.760Z,13.30
2022-09-14T07:09:44.778Z,13.33
2022-09-14T07:10:44.719Z,13.37
2022-09-14T07:11:44.714Z,13.41
2022-09-14T07:12:44.713Z,13.46
2022-09-14T07:13:44.703Z,13.46
2022-09-14T07:14:44.750Z,13.53
2022-09-14T07:15:44.658Z,13.57
2022-09-14T07:16:44.643Z,13.56
2022-09-14T07:17:44.628Z,13.65
2022-09-14T07:18:44.645Z,13.67
2022-09-14T07:19:44.631Z,13.71
2022-09-14T07:20:44.605Z,13.78
2022-09-14T07:21:44.599Z,13.83
2022-09-14T07:22:44.558Z,13.86
2022-09-14T07:23:44.589Z,13.92
2022-09-14T07:24:44.570Z,13.96
2022-09-14T07:25:44.537Z,13.97
2022-09-14T07:26:44.578Z,14.03
2022-09-14T07:27:44.519Z,14.08
2022-09-14T07:28:44.474Z,14.20
2022-09-14T07:29:44.499Z,14.28
2022-09-14T07:30:44.516Z,14.37
2022-09-14T07:31:44.459Z,14.50
2022-09-14T07:32:44.428Z,14.55
2022-09-14T07:33:44.529Z,14.55
2022-09-14T07:34:44.449Z,14.68
2022-09-14T07:35:44.378Z,14.81
2022-09-14T07:36:44.395Z,14.88
2022-09-14T07:37:44.407Z,14.89
2022-09-14T07:38:52.891Z,14.99
2022-09-14T07:39:45.382Z,14.99
2022-09-14T07:40:44.408Z,14.99
2022-09-14T07:41:44.310Z,15.04
2022-09-14T07:42:44.318Z,15.06
2022-09-14T07:43:44.287Z,15.14
2022-09-14T07:44:44.317Z,15.15
2022-09-14T07:45:44.326Z,15.18
2022-09-14T07:46:44.285Z,15.22
2022-09-14T07:47:44.273Z,15.27
2022-09-14T07:48:44.288Z,15.33
2022-09-14T07:49:44.226Z,15.39
2022-09-14T07:50:44.228Z,15.46
2022-09-14T07:51:44.209Z,15.55
2022-09-14T07:52:44.177Z,15.61
2022-09-14T07:53:44.154Z,15.62
2022-09-14T07:54:44.142Z,15.67
2022-09-14T07:55:44.160Z,15.70
2022-09-14T07:56:44.188Z,15.75
2022-09-14T07:57:55.775Z,15.77
2022-09-14T07:58:45.162Z,15.80
2022-09-14T07:59:44.153Z,15.82
2022-09-14T08:00:44.090Z,15.84
2022-09-14T08:01:44.238Z,15.84
2022-09-14T08:02:44.154Z,15.90
2022-09-14T08:03:44.107Z,15.92
2022-09-14T08:04:44.027Z,16.00
2022-09-14T08:05:44.003Z,16.04
2022-09-14T08:06:43.968Z,16.04
2022-09-14T08:07:43.966Z,16.09
2022-09-14T08:08:43.951Z,16.09
2022-09-14T08:09:43.997Z,16.13
2022-09-14T08:10:43.916Z,16.15
2022-09-14T08:11:43.938Z,16.16
2022-09-14T08:12:43.917Z,16.17
2022-09-14T08:13:43.889Z,16.16
2022-09-14T08:14:43.896Z,16.17
2022-09-14T08:15:43.887Z,16.15
2022-09-14T08:16:43.889Z,16.15
2022-09-14T08:17:43.849Z,16.15
2022-09-14T08:18:43.882Z,16.13
2022-09-14T08:19:43.813Z,16.16
2022-09-14T08:20:43.791Z,16.16
2022-09-14T08:21:46.957Z,16.15
2022-09-14T08:22:43.753Z,16.23
2022-09-14T08:23:43.743Z,16.26
2022-09-14T08:24:43.739Z,16.29
2022-09-14T08:25:43.721Z,16.33
2022-09-14T08:26:43.707Z,16.33
2022-09-14T08:27:43.728Z,16.42
2022-09-14T08:28:43.770Z,16.47
2022-09-14T08:29:43.672Z,16.47
2022-09-14T08:30:43.659Z,16.58
2022-09-14T08:31:43.674Z,16.66
2022-09-14T08:32:43.639Z,16.68
2022-09-14T08:33:43.600Z,16.76
2022-09-14T08:34:43.611Z,16.79
2022-09-14T08:35:57.361Z,16.79
2022-09-14T08:36:44.593Z,16.83
2022-09-14T08:37:43.566Z,16.86
2022-09-14T08:38:43.540Z,16.91
2022-09-14T08:39:46.229Z,16.96
2022-09-14T08:40:43.519Z,16.97
2022-09-14T08:41:43.543Z,17.12
2022-09-14T08:42:43.497Z,17.22
2022-09-14T08:43:43.534Z,17.29
2022-09-14T08:44:43.478Z,17.36
2022-09-14T08:45:43.556Z,17.45
2022-09-14T08:46:43.439Z,17.54
2022-09-14T08:47:43.430Z,17.74
2022-09-14T08:48:43.426Z,17.74
2022-09-14T08:49:43.412Z,17.85
2022-09-14T08:50:43.392Z,17.98
2022-09-14T08:51:43.418Z,18.00
2022-09-14T08:52:43.399Z,18.07
2022-09-14T08:53:43.338Z,18.08
2022-09-14T08:54:43.357Z,18.16
2022-09-14T08:55:43.334Z,18.22
2022-09-14T08:56:43.320Z,18.29
2022-09-14T08:57:43.298Z,18.40
2022-09-14T08:58:48.141Z,18.56
2022-09-14T08:59:44.267Z,18.58
2022-09-14T09:00:43.312Z,18.77
2022-09-14T09:01:43.238Z,18.98
2022-09-14T09:02:43.233Z,19.47
2022-09-14T09:03:43.289Z,19.47
2022-09-14T09:04:43.219Z,19.84
2022-09-14T09:05:43.192Z,19.84
2022-09-14T09:06:43.183Z,20.21
2022-09-14T09:07:43.149Z,20.40
2022-09-14T09:08:43.149Z,20.41
2022-09-14T09:09:43.143Z,20.47
2022-09-14T09:10:43.146Z,20.44
2022-09-14T09:11:43.123Z,20.43
2022-09-14T09:12:43.089Z,20.40
2022-09-14T09:13:43.092Z,20.40
2022-09-14T09:14:43.107Z,20.34
2022-09-14T09:15:43.050Z,20.29
2022-09-14T09:16:43.108Z,20.29
2022-09-14T09:17:43.032Z,20.29
2022-09-14T09:18:43.053Z,20.28
2022-09-14T09:19:43.009Z,20.39
2022-09-14T09:20:42.978Z,20.39
2022-09-14T09:21:42.997Z,20.40
2022-09-14T09:22:42.984Z,20.40
2022-09-14T09:23:42.949Z,20.58
2022-09-14T09:24:42.949Z,20.80
2022-09-14T09:25:42.928Z,21.03
2022-09-14T09:26:42.908Z,21.32
2022-09-14T09:27:42.899Z,21.33
2022-09-14T09:28:42.899Z,21.77
2022-09-14T09:29:42.883Z,21.83
2022-09-14T09:30:42.853Z,21.80
2022-09-14T09:31:42.948Z,21.76
2022-09-14T09:32:42.819Z,21.72
2022-09-14T09:33:42.835Z,21.73
2022-09-14T09:34:42.841Z,21.72
2022-09-14T09:35:42.779Z,21.85
2022-09-14T09:36:42.769Z,21.85
2022-09-14T09:37:42.763Z,22.36
2022-09-14T09:38:42.743Z,22.70
2022-09-14T09:39:42.772Z,22.83
2022-09-14T09:40:42.729Z,22.87
2022-09-14T09:41:42.707Z,22.93
2022-09-14T09:42:42.694Z,22.94
2022-09-14T09:43:49.302Z,23.08
2022-09-14T09:44:43.689Z,23.12
2022-09-14T09:45:42.665Z,23.18
2022-09-14T09:46:42.661Z,23.34
2022-09-14T09:47:42.635Z,23.36
2022-09-14T09:48:42.703Z,23.77
2022-09-14T09:49:42.600Z,23.96
2022-09-14T09:50:42.596Z,23.96
2022-09-14T09:51:42.573Z,23.95
2022-09-14T09:52:42.576Z,23.87
2022-09-14T09:53:42.541Z,23.78
2022-09-14T09:54:42.541Z,23.68
2022-09-14T09:55:42.537Z,23.44
2022-09-14T09:56:42.504Z,23.37
2022-09-14T09:57:42.492Z,23.25
2022-09-14T09:58:42.482Z,23.18
2022-09-14T09:59:42.471Z,23.12
2022-09-14T10:00:42.485Z,23.06
2022-09-14T10:01:42.546Z,23.06
2022-09-14T10:02:42.431Z,22.99
2022-09-14T10:03:42.446Z,22.93
2022-09-14T10:04:42.413Z,22.85
2022-09-14T10:05:42.447Z,22.87
2022-09-14T10:06:42.366Z,22.83
2022-09-14T10:07:42.363Z,22.83
2022-09-14T10:08:42.333Z,22.83
2022-09-14T10:09:42.331Z,22.72
2022-09-14T10:10:42.323Z,22.73
2022-09-14T10:11:42.303Z,22.57
2022-09-14T10:12:42.286Z,22.50
2022-09-14T10:13:42.284Z,22.44
2022-09-14T10:14:42.280Z,22.45
2022-09-14T10:15:42.285Z,22.43
2022-09-14T10:16:42.235Z,22.43
2022-09-14T10:17:42.221Z,22.50
2022-09-14T10:18:45.633Z,22.48
2022-09-14T10:19:43.204Z,22.51
2022-09-14T10:20:42.194Z,22.55
2022-09-14T10:21:42.178Z,22.41
2022-09-14T10:22:42.156Z,22.33
2022-09-14T10:23:42.150Z,22.33
2022-09-14T10:24:42.149Z,22.28
2022-09-14T10:25:42.104Z,22.23
2022-09-14T10:26:42.103Z,22.23
2022-09-14T10:27:42.085Z,22.25
2022-09-14T10:28:42.087Z,22.25
2022-09-14T10:29:42.083Z,22.25
2022-09-14T10:30:42.055Z,22.26
2022-09-14T10:31:42.078Z,22.23
2022-09-14T10:32:42.037Z,22.28
2022-09-14T10:33:42.016Z,22.29
2022-09-14T10:34:42.008Z,22.33
2022-09-14T10:35:41.993Z,22.33
2022-09-14T10:36:41.964Z,22.45
2022-09-14T10:37:41.960Z,22.53
2022-09-14T10:38:41.960Z,22.59
2022-09-14T10:39:41.937Z,22.68
2022-09-14T10:40:41.913Z,22.66
2022-09-14T10:41:41.943Z,22.80
2022-09-14T10:42:41.887Z,22.83
2022-09-14T10:43:41.877Z,22.90
2022-09-14T10:44:41.892Z,22.93
2022-09-14T10:45:41.852Z,22.91
2022-09-14T10:46:41.866Z,22.93
2022-09-14T10:47:41.809Z,22.88
2022-09-14T10:48:41.809Z,22.88
2022-09-14T10:49:41.804Z,22.83
2022-09-14T10:50:41.788Z,22.81
2022-09-14T10:51:41.764Z,22.80
2022-09-14T10:52:41.765Z,22.70
2022-09-14T10:53:41.749Z,22.70
2022-09-14T10:54:41.741Z,22.68
2022-09-14T10:55:41.714Z,22.57
2022-09-14T10:56:41.698Z,22.57
2022-09-14T10:57:41.705Z,22.48
2022-09-14T10:58:41.667Z,22.47
2022-09-14T10:59:41.663Z,22.41
2022-09-14T11:00:41.647Z,22.36
2022-09-14T11:01:41.764Z,22.32
2022-09-14T11:02:41.783Z,22.30
2022-09-14T11:03:45.729Z,22.26
2022-09-14T11:04:41.684Z,22.25
2022-09-14T11:05:41.575Z,22.20
2022-09-14T11:06:41.573Z,22.18
2022-09-14T11:07:41.556Z,22.18
2022-09-14T11:08:41.547Z,22.15
2022-09-14T11:09:41.538Z,22.18
2022-09-14T11:10:41.533Z,22.14
2022-09-14T11:11:41.504Z,22.11
2022-09-14T11:12:41.489Z,22.10
2022-09-14T11:13:41.494Z,22.10
2022-09-14T11:14:41.476Z,22.10
2022-09-14T11:15:41.520Z,22.11
2022-09-14T11:16:41.440Z,22.13
2022-09-14T11:17:41.434Z,22.13
2022-09-14T11:18:41.406Z,22.14
2022-09-14T11:19:41.395Z,22.14
2022-09-14T11:20:42.913Z,22.14
2022-09-14T11:21:41.373Z,22.14
2022-09-14T11:22:41.351Z,22.14
2022-09-14T11:23:41.331Z,22.14
2022-09-14T11:24:41.339Z,22.11
2022-09-14T11:25:41.331Z,22.10
2022-09-14T11:26:42.526Z,22.08
2022-09-14T11:27:41.284Z,22.07
2022-09-14T11:28:41.282Z,22.07
2022-09-14T11:29:41.260Z,22.02
2022-09-14T11:30:41.309Z,22.02
2022-09-14T11:31:41.228Z,21.99
2022-09-14T11:32:41.219Z,21.98
2022-09-14T11:33:41.221Z,21.96
2022-09-14T11:34:41.194Z,21.98
2022-09-14T11:35:41.188Z,21.98
2022-09-14T11:36:41.176Z,21.95
2022-09-14T11:37:41.154Z,21.96
2022-09-14T11:38:41.145Z,21.92
2022-09-14T11:39:41.151Z,21.92
2022-09-14T11:40:41.120Z,21.92
2022-09-14T11:41:41.108Z,21.89
2022-09-14T11:42:41.099Z,21.91
2022-09-14T11:43:41.067Z,21.88
2022-09-14T11:44:41.100Z,21.85
2022-09-14T11:45:41.046Z,21.85
2022-09-14T11:46:41.105Z,21.85
2022-09-14T11:47:41.011Z,21.83
2022-09-14T11:48:43.367Z,21.83
2022-09-14T11:49:40.991Z,21.82
2022-09-14T11:50:40.978Z,21.73
2022-09-14T11:51:40.966Z,21.75
2022-09-14T11:52:40.950Z,21.73
2022-09-14T11:53:40.955Z,21.72
2022-09-14T11:54:46.031Z,21.76
2022-09-14T11:55:41.927Z,21.69
2022-09-14T11:56:40.900Z,21.69
2022-09-14T11:57:40.903Z,21.69
2022-09-14T11:58:40.895Z,21.70
2022-09-14T11:59:40.899Z,21.72
2022-09-14T12:00:40.839Z,21.72
2022-09-14T12:01:40.841Z,21.70
2022-09-14T12:02:40.887Z,21.72
2022-09-14T12:03:40.874Z,21.72
2022-09-14T12:04:40.799Z,21.73
2022-09-14T12:05:40.822Z,21.75
2022-09-14T12:06:40.772Z,21.76
2022-09-14T12:07:40.760Z,21.76
2022-09-14T12:08:40.750Z,21.77
2022-09-14T12:09:40.730Z,21.76
2022-09-14T12:10:45.258Z,21.76
2022-09-14T12:11:41.700Z,21.75
2022-09-14T12:12:40.699Z,21.76
2022-09-14T12:13:40.695Z,21.73
2022-09-14T12:14:40.708Z,21.72
2022-09-14T12:15:40.672Z,21.69
2022-09-14T12:16:40.649Z,21.69
2022-09-14T12:17:41.223Z,21.69
2022-09-14T12:18:40.611Z,21.67
2022-09-14T12:19:40.623Z,21.66
2022-09-14T12:20:40.609Z,21.69
2022-09-14T12:21:40.575Z,21.67
2022-09-14T12:22:40.557Z,21.69
2022-09-14T12:23:40.602Z,21.69
2022-09-14T12:24:40.548Z,21.70
2022-09-14T12:25:40.513Z,21.70
2022-09-14T12:26:40.510Z,21.72
2022-09-14T12:27:40.978Z,21.72
2022-09-14T12:28:40.541Z,21.72
2022-09-14T12:29:40.501Z,21.70
2022-09-14T12:30:41.087Z,21.70
2022-09-14T12:31:40.448Z,21.67
2022-09-14T12:32:40.511Z,21.64
2022-09-14T12:33:40.423Z,21.66
2022-09-14T12:34:40.400Z,21.60
2022-09-14T12:35:40.675Z,21.60
2022-09-14T12:36:40.366Z,21.57
2022-09-14T12:37:40.374Z,21.55
2022-09-14T12:38:40.741Z,21.54
2022-09-14T12:39:40.331Z,21.55
2022-09-14T12:40:40.310Z,21.51
2022-09-14T12:41:40.300Z,21.50
2022-09-14T12:42:40.280Z,21.48
2022-09-14T12:43:40.291Z,21.46
2022-09-14T12:44:41.211Z,21.45
2022-09-14T12:45:40.280Z,21.40
2022-09-14T12:46:40.387Z,21.36
2022-09-14T12:47:40.464Z,21.33
2022-09-14T12:48:40.204Z,21.30
2022-09-14T12:49:40.203Z,21.29
2022-09-14T12:50:40.196Z,21.27
2022-09-14T12:51:40.164Z,21.22
2022-09-14T12:52:40.154Z,21.22